Time;durP1;ratioP1;P1;durP2;ratioP2;P2;SDS_P1;SDS_P2;PMS_P1;PMS_P2;Temp;Humidity;BMP_temperature;BMP_pressure;BME280_temperature;BME280_humidity;BME280_pressure;Samples;Min_cycle;Max_cycle;Signal;HPM_P1;HPM_P2
2023/03/16 00:00:38;;;;;;;;;;;;;;;;;;2212153;67;1033;-68
2023/03/16 00:03:09;;;;;;;;;;;;;;;;;;2212269;59;1076;-69
2023/03/16 00:05:39;;;;;;;;;;;;;;;;;;2212304;66;1936;-68
2023/03/16 00:08:10;;;;;;;;;;;;;;;;;;2212456;59;1275;-68
2023/03/16 00:10:45;;;;;;;;;;;;;;;;;;2214862;66;1116;-69
2023/03/16 00:13:16;;;;;;;;;;;;;;;;;;2212875;67;1207;-68
2023/03/16 00:15:50;;;;;;;;;;;;;;;;;;2212182;66;1061;-68
2023/03/16 00:18:22;;;;;;;;;;;;;;;;;;2211893;67;1238;-68
2023/03/16 00:20:57;;;;;;;;;;;;;;;;;;2212292;66;1099;-68
2023/03/16 00:23:27;;;;;;;;;;;;;;;;;;2211917;67;1155;-68
2023/03/16 00:25:58;;;;;;;;;;;;;;;;;;2211901;66;1935;-68
2023/03/16 00:28:33;;;;;;;;;;;;;;;;;;2211378;66;1164;-68
2023/03/16 00:31:05;;;;;;;;;;;;;;;;;;2211542;67;1192;-68
2023/03/16 00:33:36;;;;;;;;;;;;;;;;;;2212999;58;1714;-69
2023/03/16 00:36:08;;;;;;;;;;;;;;;;;;2213309;67;1222;-68
2023/03/16 00:38:48;;;;;;;;;;;;;;;;;;2212234;67;1155;-68
2023/03/16 00:41:19;;;;;;;;;;;;;;;;;;2212998;67;1101;-68
2023/03/16 00:43:50;;;;;;;;;;;;;;;;;;2211650;67;1931;-69
2023/03/16 00:46:25;;;;;;;;;;;;;;;;;;2213114;59;1039;-68
2023/03/16 00:48:56;;;;;;;;;;;;;;;;;;2212154;67;1292;-68
2023/03/16 00:51:26;;;;;;;;;;;;;;;;;;2211951;67;1088;-68
2023/03/16 00:53:59;;;;;;;;;;;;;;;;;;2212380;67;1058;-68
2023/03/16 00:56:30;;;;;;;;;;;;;;;;;;2214749;59;1044;-68
2023/03/16 00:59:00;;;;;;;;;;;;;;;;;;2212016;67;1205;-68
2023/03/16 01:01:34;;;;;;;;;;;;;;;;;;2214774;59;1410;-68
2023/03/16 01:04:04;;;;;;;;;;;;;;;;;;2212492;67;1929;-68
2023/03/16 01:06:35;;;;;;;;;;;;;;;;;;2214886;66;1077;-68
2023/03/16 01:09:05;;;;;;;;;;;;;;;;;;2212400;67;1259;-69
2023/03/16 01:11:41;;;;;;;;;;;;;;;;;;2212079;67;1069;-68
2023/03/16 01:14:12;;;;;;;;;;;;;;;;;;2212245;67;1103;-68
2023/03/16 01:16:44;;;;;;;;;;;;;;;;;;2212297;67;1015;-68
2023/03/16 01:19:15;;;;;;;;;;;;;;;;;;2212460;66;1230;-68
2023/03/16 01:21:45;;;;;;;;;;;;;;;;;;2212661;59;1343;-68
2023/03/16 01:24:15;;;;;;;;;;;;;;;;;;2212754;59;1907;-68
2023/03/16 01:26:46;;;;;;;;;;;;;;;;;;2212718;67;1213;-68
2023/03/16 01:29:16;;;;;;;;;;;;;;;;;;2222406;67;1191;-68
2023/03/16 01:31:48;;;;;;;;;;;;;;;;;;2223988;67;1095;-68
2023/03/16 01:34:19;;;;;;;;;;;;;;;;;;2224426;67;1005;-68
2023/03/16 01:36:50;;;;;;;;;;;;;;;;;;2224466;67;1274;-68
2023/03/16 01:39:20;;;;;;;;;;;;;;;;;;2223012;66;1194;-69
2023/03/16 01:41:50;;;;;;;;;;;;;;;;;;2217378;67;1081;-68
2023/03/16 01:44:23;;;;;;;;;;;;;;;;;;2214065;67;1924;-68
2023/03/16 01:46:53;;;;;;;;;;;;;;;;;;2213007;59;1179;-68
2023/03/16 01:49:28;;;;;;;;;;;;;;;;;;2213111;67;1210;-67
2023/03/16 01:52:03;;;;;;;;;;;;;;;;;;2212146;66;1035;-68
2023/03/16 01:54:38;;;;;;;;;;;;;;;;;;2212073;67;1083;-68
2023/03/16 01:57:10;;;;;;;;;;;;;;;;;;2212125;67;1212;-68
2023/03/16 01:59:44;;;;;;;;;;;;;;;;;;2214753;67;1330;-68
2023/03/16 02:02:17;;;;;;;;;;;;;;;;;;2209242;67;1324;-68
2023/03/16 02:04:54;;;;;;;;;;;;;;;;;;2211808;66;1936;-68
2023/03/16 02:07:26;;;;;;;;;;;;;;;;;;2211709;67;1180;-68
2023/03/16 02:10:01;;;;;;;;;;;;;;;;;;2211133;66;1248;-68
2023/03/16 02:12:32;;;;;;;;;;;;;;;;;;2212840;67;1074;-69
2023/03/16 02:15:03;;;;;;;;;;;;;;;;;;2212028;66;1109;-68
2023/03/16 02:17:34;;;;;;;;;;;;;;;;;;2212241;66;1072;-68
2023/03/16 02:20:23;;;;;;;;;;;;;;;;;;2211750;67;1254;-68
2023/03/16 02:23:06;;;;;;;;;;;;;;;;;;2212264;67;1045;-68
2023/03/16 02:25:45;;;;;;;;;;;;;;;;;;2212606;67;1976;-68
2023/03/16 02:28:28;;;;;;;;;;;;;;;;;;2211715;67;1908;-68
2023/03/16 02:30:58;;;;;;;;;;;;;;;;;;2211751;67;1031;-68
2023/03/16 02:33:31;;;;;;;;;;;;;;;;;;2211917;67;1113;-68
2023/03/16 02:36:01;;;;;;;;;;;;;;;;;;2211801;66;1117;-68
2023/03/16 02:38:31;;;;;;;;;;;;;;;;;;2214591;66;1385;-68
2023/03/16 02:41:10;;;;;;;;;;;;;;;;;;2211628;59;1339;-68
2023/03/16 02:43:43;;;;;;;;;;;;;;;;;;2212235;67;1163;-67
2023/03/16 02:46:14;;;;;;;;;;;;;;;;;;2212441;59;1943;-70
2023/03/16 02:48:46;;;;;;;;;;;;;;;;;;2212841;67;1607;-68
2023/03/16 02:51:17;;;;;;;;;;;;;;;;;;2213125;59;1223;-68
2023/03/16 02:53:47;;;;;;;;;;;;;;;;;;2212901;67;1077;-68
2023/03/16 02:56:21;;;;;;;;;;;;;;;;;;2213376;67;1090;-68
2023/03/16 02:58:51;;;;;;;;;;;;;;;;;;2213268;67;1304;-68
2023/03/16 03:01:22;;;;;;;;;;;;;;;;;;2212595;67;1149;-68
2023/03/16 03:03:53;;;;;;;;;;;;;;;;;;2212851;67;1928;-69
2023/03/16 03:06:24;;;;;;;;;;;;;;;;;;2213318;67;1158;-68
2023/03/16 03:08:54;;;;;;;;;;;;;;;;;;2212708;59;1241;-68
2023/03/16 03:11:24;;;;;;;;;;;;;;;;;;2212862;67;1134;-68
2023/03/16 03:13:55;;;;;;;;;;;;;;;;;;2212050;59;1537;-68
2023/03/16 03:16:25;;;;;;;;;;;;;;;;;;2213782;59;1300;-68
2023/03/16 03:18:56;;;;;;;;;;;;;;;;;;2220028;67;1175;-68
2023/03/16 03:21:26;;;;;;;;;;;;;;;;;;2219423;66;1110;-68
2023/03/16 03:23:56;;;;;;;;;;;;;;;;;;2223611;66;1926;-68
2023/03/16 03:26:28;;;;;;;;;;;;;;;;;;2225451;66;1079;-68
2023/03/16 03:28:58;;;;;;;;;;;;;;;;;;2223799;67;1210;-65
2023/03/16 03:31:28;;;;;;;;;;;;;;;;;;2214904;66;2292;-68
2023/03/16 03:33:59;;;;;;;;;;;;;;;;;;2212257;67;1133;-68
2023/03/16 03:36:29;;;;;;;;;;;;;;;;;;2212404;67;1162;-68
2023/03/16 03:39:02;;;;;;;;;;;;;;;;;;2211872;67;1142;-68
2023/03/16 03:41:32;;;;;;;;;;;;;;;;;;2212629;67;1106;-67
2023/03/16 03:44:06;;;;;;;;;;;;;;;;;;2212393;66;1927;-68
2023/03/16 03:46:36;;;;;;;;;;;;;;;;;;2212544;59;1071;-68
2023/03/16 03:49:06;;;;;;;;;;;;;;;;;;2212673;67;1228;-68
2023/03/16 03:51:37;;;;;;;;;;;;;;;;;;2211881;67;1071;-68
2023/03/16 03:54:10;;;;;;;;;;;;;;;;;;2212464;59;1061;-68
2023/03/16 03:56:40;;;;;;;;;;;;;;;;;;2211991;59;1128;-68
2023/03/16 03:59:10;;;;;;;;;;;;;;;;;;2212599;67;1206;-68
2023/03/16 04:01:44;;;;;;;;;;;;;;;;;;2211588;67;1236;-68
2023/03/16 04:04:14;;;;;;;;;;;;;;;;;;2212294;67;1992;-68
2023/03/16 04:06:45;;;;;;;;;;;;;;;;;;2212176;66;1263;-68
2023/03/16 04:09:16;;;;;;;;;;;;;;;;;;2211657;59;1151;-68
2023/03/16 04:11:49;;;;;;;;;;;;;;;;;;2211880;66;1215;-68
2023/03/16 04:14:20;;;;;;;;;;;;;;;;;;2211768;67;1715;-68
2023/03/16 04:16:50;;;;;;;;;;;;;;;;;;2211552;66;1053;-68
2023/03/16 04:19:21;;;;;;;;;;;;;;;;;;2211674;67;1241;-68
2023/03/16 04:21:51;;;;;;;;;;;;;;;;;;2211842;67;1002;-68
2023/03/16 04:24:22;;;;;;;;;;;;;;;;;;2211733;59;1927;-68
2023/03/16 04:26:53;;;;;;;;;;;;;;;;;;2211892;67;997;-68
2023/03/16 04:29:26;;;;;;;;;;;;;;;;;;2211678;67;1283;-68
2023/03/16 04:31:57;;;;;;;;;;;;;;;;;;2214730;66;1644;-68
2023/03/16 04:34:28;;;;;;;;;;;;;;;;;;2212011;59;1053;-68
2023/03/16 04:36:58;;;;;;;;;;;;;;;;;;2211675;66;1191;-68
2023/03/16 04:39:29;;;;;;;;;;;;;;;;;;2211630;67;1280;-68
2023/03/16 04:42:00;;;;;;;;;;;;;;;;;;2211544;59;1017;-68
2023/03/16 04:44:30;;;;;;;;;;;;;;;;;;2211575;66;1989;-68
2023/03/16 04:47:01;;;;;;;;;;;;;;;;;;2211761;59;1160;-68
2023/03/16 04:49:31;;;;;;;;;;;;;;;;;;2211168;67;1293;-68
2023/03/16 04:52:04;;;;;;;;;;;;;;;;;;2211376;67;1204;-68
2023/03/16 04:54:34;;;;;;;;;;;;;;;;;;2211879;59;1169;-69
2023/03/16 04:57:10;;;;;;;;;;;;;;;;;;2211664;67;1082;-68
2023/03/16 04:59:41;;;;;;;;;;;;;;;;;;2211753;67;1293;-68
2023/03/16 05:02:11;;;;;;;;;;;;;;;;;;2211233;67;1073;-68
2023/03/16 05:04:42;;;;;;;;;;;;;;;;;;2211722;67;1991;-68
2023/03/16 05:07:12;;;;;;;;;;;;;;;;;;2211244;67;1191;-68
2023/03/16 05:09:43;;;;;;;;;;;;;;;;;;2211410;66;1271;-68
2023/03/16 05:12:13;;;;;;;;;;;;;;;;;;2211330;59;1192;-68
2023/03/16 05:14:43;;;;;;;;;;;;;;;;;;2211522;59;1236;-68
2023/03/16 05:17:13;;;;;;;;;;;;;;;;;;2211275;59;1272;-68
2023/03/16 05:19:44;;;;;;;;;;;;;;;;;;2211927;67;1247;-68
2023/03/16 05:22:14;;;;;;;;;;;;;;;;;;2211179;66;1137;-68
2023/03/16 05:24:45;;;;;;;;;;;;;;;;;;2211756;58;1928;-68
2023/03/16 05:27:15;;;;;;;;;;;;;;;;;;2211121;59;1175;-68
2023/03/16 05:29:46;;;;;;;;;;;;;;;;;;2211889;67;1234;-68
2023/03/16 05:32:17;;;;;;;;;;;;;;;;;;2211530;67;1044;-68
2023/03/16 05:34:47;;;;;;;;;;;;;;;;;;2210122;59;1860;-68
2023/03/16 05:37:29;;;;;;;;;;;;;;;;;;2211766;59;1166;-68
2023/03/16 05:40:21;;;;;;;;;;;;;;;;;;2208479;59;1860;-68
2023/03/16 05:42:55;;;;;;;;;;;;;;;;;;2211647;67;1033;-68
2023/03/16 05:45:26;;;;;;;;;;;;;;;;;;2212031;67;1936;-68
2023/03/16 05:48:04;;;;;;;;;;;;;;;;;;2211745;59;1249;-68
2023/03/16 05:50:34;;;;;;;;;;;;;;;;;;2211534;67;1036;-68
2023/03/16 05:53:05;;;;;;;;;;;;;;;;;;2212366;67;1246;-68
2023/03/16 05:55:35;;;;;;;;;;;;;;;;;;2212294;67;1020;-68
2023/03/16 05:58:05;;;;;;;;;;;;;;;;;;2212325;67;1276;-68
2023/03/16 06:00:38;;;;;;;;;;;;;;;;;;2212043;67;1084;-68
2023/03/16 06:03:08;;;;;;;;;;;;;;;;;;2214639;59;1214;-68
2023/03/16 06:05:38;;;;;;;;;;;;;;;;;;2212387;67;1994;-68
2023/03/16 06:08:08;;;;;;;;;;;;;;;;;;2212671;67;1286;-68
2023/03/16 06:10:39;;;;;;;;;;;;;;;;;;2211748;67;1075;-68
2023/03/16 06:13:10;;;;;;;;;;;;;;;;;;2211903;67;1053;-68
2023/03/16 06:15:40;;;;;;;;;;;;;;;;;;2211171;67;976;-68
2023/03/16 06:18:11;;;;;;;;;;;;;;;;;;2211881;59;1230;-68
2023/03/16 06:20:42;;;;;;;;;;;;;;;;;;2212155;67;1070;-68
2023/03/16 06:23:12;;;;;;;;;;;;;;;;;;2212262;67;1086;-68
2023/03/16 06:25:42;;;;;;;;;;;;;;;;;;2212448;66;1933;-68
2023/03/16 06:28:13;;;;;;;;;;;;;;;;;;2212569;67;1174;-68
2023/03/16 06:30:43;;;;;;;;;;;;;;;;;;2212513;66;1174;-68
2023/03/16 06:33:14;;;;;;;;;;;;;;;;;;2212194;59;1693;-68
2023/03/16 06:35:44;;;;;;;;;;;;;;;;;;2214526;58;1632;-68
2023/03/16 06:38:15;;;;;;;;;;;;;;;;;;2212645;67;1234;-68
2023/03/16 06:40:45;;;;;;;;;;;;;;;;;;2211859;67;1135;-68
2023/03/16 06:43:15;;;;;;;;;;;;;;;;;;2213312;67;1123;-68
2023/03/16 06:45:46;;;;;;;;;;;;;;;;;;2212625;66;1993;-68
2023/03/16 06:48:16;;;;;;;;;;;;;;;;;;2213018;59;1291;-68
2023/03/16 06:50:46;;;;;;;;;;;;;;;;;;2212735;67;1231;-69
2023/03/16 06:53:17;;;;;;;;;;;;;;;;;;2212667;67;1036;-68
2023/03/16 06:55:47;;;;;;;;;;;;;;;;;;2212651;67;1176;-68
2023/03/16 06:58:17;;;;;;;;;;;;;;;;;;2212833;66;1226;-68
2023/03/16 07:00:48;;;;;;;;;;;;;;;;;;2212600;67;1288;-69
2023/03/16 07:03:18;;;;;;;;;;;;;;;;;;2213097;66;1218;-68
2023/03/16 07:05:48;;;;;;;;;;;;;;;;;;2212749;66;1920;-68
2023/03/16 07:08:19;;;;;;;;;;;;;;;;;;2211283;67;1315;-69
2023/03/16 07:10:50;;;;;;;;;;;;;;;;;;2211898;67;1098;-68
2023/03/16 07:13:20;;;;;;;;;;;;;;;;;;2212748;59;1409;-68
2023/03/16 07:15:51;;;;;;;;;;;;;;;;;;2211598;66;1195;-69
2023/03/16 07:18:21;;;;;;;;;;;;;;;;;;2213083;66;1233;-69
2023/03/16 07:20:52;;;;;;;;;;;;;;;;;;2213145;67;1055;-68
2023/03/16 07:23:23;;;;;;;;;;;;;;;;;;2213283;67;1073;-69
2023/03/16 07:25:54;;;;;;;;;;;;;;;;;;2212790;67;1920;-69
2023/03/16 07:28:24;;;;;;;;;;;;;;;;;;2213195;66;1239;-68
2023/03/16 07:30:54;;;;;;;;;;;;;;;;;;2211800;67;1054;-69
2023/03/16 07:33:25;;;;;;;;;;;;;;;;;;2212289;67;1080;-69
2023/03/16 07:35:55;;;;;;;;;;;;;;;;;;2212175;67;1062;-69
2023/03/16 07:38:25;;;;;;;;;;;;;;;;;;2212425;67;1234;-69
2023/03/16 07:40:59;;;;;;;;;;;;;;;;;;2211825;67;1097;-69
2023/03/16 07:43:30;;;;;;;;;;;;;;;;;;2214858;66;1060;-69
2023/03/16 07:46:00;;;;;;;;;;;;;;;;;;2214808;59;1972;-69
2023/03/16 07:48:31;;;;;;;;;;;;;;;;;;2212194;67;1247;-69
2023/03/16 07:51:01;;;;;;;;;;;;;;;;;;2212067;67;1042;-69
2023/03/16 07:53:31;;;;;;;;;;;;;;;;;;2212399;67;1005;-69
2023/03/16 07:56:02;;;;;;;;;;;;;;;;;;2212334;67;1100;-69
2023/03/16 07:58:32;;;;;;;;;;;;;;;;;;2211471;67;2162;-69
2023/03/16 08:01:03;;;;;;;;;;;;;;;;;;2212548;67;1238;-69
2023/03/16 08:03:33;;;;;;;;;;;;;;;;;;2211735;59;1086;-69
2023/03/16 08:06:04;;;;;;;;;;;;;;;;;;2212296;67;1927;-69
2023/03/16 08:08:34;;;;;;;;;;;;;;;;;;2212746;66;1278;-69
2023/03/16 08:11:04;;;;;;;;;;;;;;;;;;2212277;67;1287;-69
2023/03/16 08:13:35;;;;;;;;;;;;;;;;;;2212317;67;1080;-69
2023/03/16 08:16:09;;;;;;;;;;;;;;;;;;2212449;67;1213;-69
2023/03/16 08:18:41;;;;;;;;;;;;;;;;;;2214671;66;1303;-71
2023/03/16 08:21:11;;;;;;;;;;;;;;;;;;2210980;67;1668;-69
2023/03/16 08:23:47;;;;;;;;;;;;;;;;;;2212442;66;1135;-69
2023/03/16 08:26:19;;;;;;;;;;;;;;;;;;2211760;66;1931;-69
2023/03/16 08:28:50;;;;;;;;;;;;;;;;;;2211920;66;1208;-69
2023/03/16 08:31:24;;;;;;;;;;;;;;;;;;2212589;67;1188;-69
2023/03/16 08:33:55;;;;;;;;;;;;;;;;;;2215080;66;1085;-69
2023/03/16 08:36:29;;;;;;;;;;;;;;;;;;2212344;67;1068;-69
2023/03/16 08:38:59;;;;;;;;;;;;;;;;;;2212303;67;1249;-69
2023/03/16 08:41:31;;;;;;;;;;;;;;;;;;2212360;67;1081;-69
2023/03/16 08:44:02;;;;;;;;;;;;;;;;;;2211527;66;3227;-71
2023/03/16 08:46:33;;;;;;;;;;;;;;;;;;2212351;59;2004;-69
2023/03/16 08:49:04;;;;;;;;;;;;;;;;;;2211977;67;1313;-69
2023/03/16 08:51:34;;;;;;;;;;;;;;;;;;2212524;66;1091;-69
2023/03/16 08:54:04;;;;;;;;;;;;;;;;;;2212099;67;1068;-68
2023/03/16 08:56:34;;;;;;;;;;;;;;;;;;2212193;67;1044;-69
2023/03/16 08:59:05;;;;;;;;;;;;;;;;;;2211539;67;1230;-69
2023/03/16 09:01:39;;;;;;;;;;;;;;;;;;2213027;67;1092;-69
2023/03/16 09:04:10;;;;;;;;;;;;;;;;;;2212409;66;1929;-69
2023/03/16 09:06:41;;;;;;;;;;;;;;;;;;2211991;67;1068;-69
2023/03/16 09:09:11;;;;;;;;;;;;;;;;;;2212026;67;1228;-69
2023/03/16 09:11:41;;;;;;;;;;;;;;;;;;2212617;67;1151;-69
2023/03/16 09:14:12;;;;;;;;;;;;;;;;;;2211750;66;1084;-69
2023/03/16 09:16:43;;;;;;;;;;;;;;;;;;2212500;67;1143;-69
2023/03/16 09:19:13;;;;;;;;;;;;;;;;;;2211827;67;1155;-69
2023/03/16 09:21:44;;;;;;;;;;;;;;;;;;2212313;66;1198;-69
2023/03/16 09:24:14;;;;;;;;;;;;;;;;;;2211223;67;2005;-70
2023/03/16 09:26:45;;;;;;;;;;;;;;;;;;2211417;67;1283;-68
2023/03/16 09:29:15;;;;;;;;;;;;;;;;;;2211681;67;1159;-69
2023/03/16 09:31:46;;;;;;;;;;;;;;;;;;2211807;59;1139;-68
2023/03/16 09:34:17;;;;;;;;;;;;;;;;;;2211655;59;1251;-69
2023/03/16 09:36:47;;;;;;;;;;;;;;;;;;2212177;67;1213;-68
2023/03/16 09:39:18;;;;;;;;;;;;;;;;;;2211519;66;1231;-69
2023/03/16 09:41:57;;;;;;;;;;;;;;;;;;2214815;66;2028;-69
2023/03/16 09:44:46;;;;;;;;;;;;;;;;;;2211901;67;1937;-69
2023/03/16 09:47:22;;;;;;;;;;;;;;;;;;2212155;59;1205;-68
2023/03/16 09:49:54;;;;;;;;;;;;;;;;;;2211024;67;1332;-69
2023/03/16 09:52:34;;;;;;;;;;;;;;;;;;2212091;66;1960;-69
2023/03/16 09:55:25;;;;;;;;;;;;;;;;;;2211878;59;1073;-69
2023/03/16 09:57:57;;;;;;;;;;;;;;;;;;2211721;67;1228;-68
2023/03/16 10:00:36;;;;;;;;;;;;;;;;;;2212440;67;1145;-69
2023/03/16 10:03:13;;;;;;;;;;;;;;;;;;2212433;66;1139;-69
2023/03/16 10:05:45;;;;;;;;;;;;;;;;;;2213028;66;1942;-69
2023/03/16 10:08:24;;;;;;;;;;;;;;;;;;2212392;66;1266;-69
2023/03/16 10:11:04;;;;;;;;;;;;;;;;;;2213485;67;1175;-68
2023/03/16 10:13:37;;;;;;;;;;;;;;;;;;2212897;67;1073;-69
2023/03/16 10:16:10;;;;;;;;;;;;;;;;;;2218786;59;1151;-69
2023/03/16 10:18:43;;;;;;;;;;;;;;;;;;2221406;67;1204;-70
2023/03/16 10:21:18;;;;;;;;;;;;;;;;;;2223856;67;1214;-69
2023/03/16 10:23:51;;;;;;;;;;;;;;;;;;2224405;67;1092;-69
2023/03/16 10:26:24;;;;;;;;;;;;;;;;;;2224364;67;1985;-69
2023/03/16 10:28:54;;;;;;;;;;;;;;;;;;2224245;66;1185;-69
2023/03/16 10:31:25;;;;;;;;;;;;;;;;;;2224711;67;1035;-69
2023/03/16 10:34:01;;;;;;;;;;;;;;;;;;2224187;66;1050;-69
2023/03/16 10:36:33;;;;;;;;;;;;;;;;;;2224072;59;1550;-69
2023/03/16 10:39:09;;;;;;;;;;;;;;;;;;2224091;67;1143;-69
2023/03/16 10:41:45;;;;;;;;;;;;;;;;;;2224423;67;1153;-69
2023/03/16 10:44:21;;;;;;;;;;;;;;;;;;2224174;59;1906;-69
2023/03/16 10:46:59;;;;;;;;;;;;;;;;;;2224351;59;1054;-70
2023/03/16 10:49:35;;;;;;;;;;;;;;;;;;2224019;67;1181;-69
2023/03/16 10:52:15;;;;;;;;;;;;;;;;;;2223833;66;1245;-69
2023/03/16 10:54:50;;;;;;;;;;;;;;;;;;2223092;66;1017;-69
2023/03/16 10:57:34;;;;;;;;;;;;;;;;;;2226118;66;1074;-69
2023/03/16 11:00:08;;;;;;;;;;;;;;;;;;2221834;67;1239;-69
2023/03/16 11:02:39;;;;;;;;;;;;;;;;;;2220612;66;2060;-69
2023/03/16 11:05:16;;;;;;;;;;;;;;;;;;2218038;67;1984;-69
2023/03/16 11:07:57;;;;;;;;;;;;;;;;;;2211817;67;1289;-69
2023/03/16 11:10:33;;;;;;;;;;;;;;;;;;2212080;67;1254;-69
2023/03/16 11:13:17;;;;;;;;;;;;;;;;;;2211910;66;1171;-69
2023/03/16 11:15:56;;;;;;;;;;;;;;;;;;2212546;66;1124;-69
2023/03/16 11:18:43;;;;;;;;;;;;;;;;;;2212607;67;1136;-69
2023/03/16 11:21:21;;;;;;;;;;;;;;;;;;2212639;66;1186;-69
2023/03/16 11:23:53;;;;;;;;;;;;;;;;;;2212315;67;1435;-69
2023/03/16 11:26:24;;;;;;;;;;;;;;;;;;2212727;67;1931;-69
2023/03/16 11:29:13;;;;;;;;;;;;;;;;;;2211786;67;1238;-69
2023/03/16 11:31:52;;;;;;;;;;;;;;;;;;2212079;67;1156;-69
2023/03/16 11:34:27;;;;;;;;;;;;;;;;;;2213140;67;1049;-69
2023/03/16 11:37:09;;;;;;;;;;;;;;;;;;2213020;67;1058;-69
2023/03/16 11:40:08;;;;;;;;;;;;;;;;;;2212676;67;1233;-69
2023/03/16 11:42:55;;;;;;;;;;;;;;;;;;2207757;66;1264;-69
2023/03/16 11:45:42;;;;;;;;;;;;;;;;;;2212673;67;1928;-69
2023/03/16 11:48:22;;;;;;;;;;;;;;;;;;2212681;59;1290;-69
2023/03/16 11:50:57;;;;;;;;;;;;;;;;;;2212723;67;1010;-68
2023/03/16 11:53:34;;;;;;;;;;;;;;;;;;2212860;67;1072;-69
2023/03/16 11:56:04;;;;;;;;;;;;;;;;;;2212278;59;1293;-69
2023/03/16 11:58:51;;;;;;;;;;;;;;;;;;2215370;66;1339;-69
2023/03/16 12:01:41;;;;;;;;;;;;;;;;;;2212623;66;1032;-70
2023/03/16 12:04:26;;;;;;;;;;;;;;;;;;2212663;67;985;-69
2023/03/16 12:07:00;;;;;;;;;;;;;;;;;;2212223;67;1114;-69
2023/03/16 12:09:38;;;;;;;;;;;;;;;;;;2212576;59;1319;-69
2023/03/16 12:12:25;;;;;;;;;;;;;;;;;;2212722;67;1154;-69
2023/03/16 12:15:09;;;;;;;;;;;;;;;;;;2212199;66;1146;-69
2023/03/16 12:17:40;;;;;;;;;;;;;;;;;;2211869;67;1284;-69
2023/03/16 12:20:17;;;;;;;;;;;;;;;;;;2212289;66;1160;-69
2023/03/16 12:22:52;;;;;;;;;;;;;;;;;;2211605;59;985;-69
2023/03/16 12:25:25;;;;;;;;;;;;;;;;;;2212382;66;1920;-69
2023/03/16 12:27:57;;;;;;;;;;;;;;;;;;2210778;59;1230;-69
2023/03/16 12:30:41;;;;;;;;;;;;;;;;;;2211455;67;1175;-69
2023/03/16 12:33:21;;;;;;;;;;;;;;;;;;2211850;61;1012;-69
2023/03/16 12:35:57;;;;;;;;;;;;;;;;;;2211867;67;1101;-70
2023/03/16 12:38:39;;;;;;;;;;;;;;;;;;2211809;59;1233;-69
2023/03/16 12:41:27;;;;;;;;;;;;;;;;;;2211631;59;1151;-70
2023/03/16 12:44:08;;;;;;;;;;;;;;;;;;2212234;67;1245;-69
2023/03/16 12:46:42;;;;;;;;;;;;;;;;;;2211193;59;1933;-69
2023/03/16 12:49:13;;;;;;;;;;;;;;;;;;2212019;67;1245;-69
2023/03/16 12:51:44;;;;;;;;;;;;;;;;;;2211980;66;1080;-69
2023/03/16 12:54:19;;;;;;;;;;;;;;;;;;2212376;59;1207;-69
2023/03/16 12:56:52;;;;;;;;;;;;;;;;;;2214450;66;1431;-69
2023/03/16 12:59:23;;;;;;;;;;;;;;;;;;2212290;59;1282;-69
2023/03/16 13:01:57;;;;;;;;;;;;;;;;;;2212330;66;1094;-69
2023/03/16 13:04:38;;;;;;;;;;;;;;;;;;2212458;67;1944;-69
2023/03/16 13:07:13;;;;;;;;;;;;;;;;;;2212276;67;1162;-69
2023/03/16 13:09:51;;;;;;;;;;;;;;;;;;2207585;67;1425;-69
2023/03/16 13:12:22;;;;;;;;;;;;;;;;;;2212338;67;1072;-68
2023/03/16 13:14:53;;;;;;;;;;;;;;;;;;2211762;59;1686;-69
2023/03/16 13:17:28;;;;;;;;;;;;;;;;;;2211659;59;1712;-69
2023/03/16 13:19:59;;;;;;;;;;;;;;;;;;2211438;67;1220;-69
2023/03/16 13:22:41;;;;;;;;;;;;;;;;;;2211584;67;1156;-69
2023/03/16 13:25:12;;;;;;;;;;;;;;;;;;2212108;67;1933;-69
2023/03/16 13:27:46;;;;;;;;;;;;;;;;;;2211165;59;1267;-69
2023/03/16 13:30:24;;;;;;;;;;;;;;;;;;2212235;67;1245;-69
2023/03/16 13:32:58;;;;;;;;;;;;;;;;;;2211642;67;990;-69
2023/03/16 13:35:29;;;;;;;;;;;;;;;;;;2211803;67;1088;-69
2023/03/16 13:38:05;;;;;;;;;;;;;;;;;;2212287;59;1243;-69
2023/03/16 13:40:44;;;;;;;;;;;;;;;;;;2211400;59;1070;-68
2023/03/16 13:43:16;;;;;;;;;;;;;;;;;;2211987;67;1115;-69
2023/03/16 13:45:47;;;;;;;;;;;;;;;;;;2211856;67;1928;-69
2023/03/16 13:48:17;;;;;;;;;;;;;;;;;;2211622;59;1313;-69
2023/03/16 13:50:52;;;;;;;;;;;;;;;;;;2211799;66;1417;-69
2023/03/16 13:53:24;;;;;;;;;;;;;;;;;;2211874;66;1168;-69
2023/03/16 13:55:55;;;;;;;;;;;;;;;;;;2211928;66;1053;-68
2023/03/16 13:58:31;;;;;;;;;;;;;;;;;;2211511;66;1238;-70
2023/03/16 14:01:03;;;;;;;;;;;;;;;;;;2214698;66;1172;-69
2023/03/16 14:03:35;;;;;;;;;;;;;;;;;;2211998;66;1083;-69
2023/03/16 14:06:06;;;;;;;;;;;;;;;;;;2211797;67;1936;-69
2023/03/16 14:08:36;;;;;;;;;;;;;;;;;;2210648;67;1315;-68
2023/03/16 14:11:07;;;;;;;;;;;;;;;;;;2212218;67;1119;-68
2023/03/16 14:13:38;;;;;;;;;;;;;;;;;;2212005;67;1090;-69
2023/03/16 14:16:15;;;;;;;;;;;;;;;;;;2212138;67;1055;-69
2023/03/16 14:18:47;;;;;;;;;;;;;;;;;;2212252;66;1253;-68
2023/03/16 14:21:20;;;;;;;;;;;;;;;;;;2207245;67;1131;-68
2023/03/16 14:23:52;;;;;;;;;;;;;;;;;;2212063;67;1208;-69
2023/03/16 14:26:23;;;;;;;;;;;;;;;;;;2211873;67;1932;-69
2023/03/16 14:29:12;;;;;;;;;;;;;;;;;;2211664;67;1686;-69
2023/03/16 14:31:43;;;;;;;;;;;;;;;;;;2211511;67;1137;-69
2023/03/16 14:34:20;;;;;;;;;;;;;;;;;;2211822;66;1214;-69
2023/03/16 14:36:51;;;;;;;;;;;;;;;;;;2211926;67;1263;-69
2023/03/16 14:39:25;;;;;;;;;;;;;;;;;;2211772;67;1254;-69
2023/03/16 14:41:56;;;;;;;;;;;;;;;;;;2211698;66;1061;-69
2023/03/16 14:44:30;;;;;;;;;;;;;;;;;;2212710;67;1933;-69
2023/03/16 14:47:03;;;;;;;;;;;;;;;;;;2212174;67;1546;-69
2023/03/16 14:49:37;;;;;;;;;;;;;;;;;;2212505;66;1222;-69
2023/03/16 14:52:24;;;;;;;;;;;;;;;;;;2212167;67;974;-69
2023/03/16 14:54:55;;;;;;;;;;;;;;;;;;2212524;67;999;-69
2023/03/16 14:57:26;;;;;;;;;;;;;;;;;;2212548;67;1027;-69
2023/03/16 14:59:59;;;;;;;;;;;;;;;;;;2210827;67;1231;-69
2023/03/16 15:02:32;;;;;;;;;;;;;;;;;;2212707;67;1005;-69
2023/03/16 15:05:03;;;;;;;;;;;;;;;;;;2212382;67;2090;-69
2023/03/16 15:07:39;;;;;;;;;;;;;;;;;;2212397;66;990;-69
2023/03/16 15:10:20;;;;;;;;;;;;;;;;;;2211293;67;1133;-69
2023/03/16 15:13:03;;;;;;;;;;;;;;;;;;2212084;66;1365;-69
2023/03/16 15:15:34;;;;;;;;;;;;;;;;;;2212899;67;1111;-69
2023/03/16 15:18:04;;;;;;;;;;;;;;;;;;2214150;67;1307;-69
2023/03/16 15:20:42;;;;;;;;;;;;;;;;;;2213860;67;1142;-68
2023/03/16 15:23:14;;;;;;;;;;;;;;;;;;2214011;67;1065;-68
2023/03/16 15:25:46;;;;;;;;;;;;;;;;;;2211711;59;1927;-69
2023/03/16 15:28:18;;;;;;;;;;;;;;;;;;2212500;67;1250;-69
2023/03/16 15:30:51;;;;;;;;;;;;;;;;;;2211147;59;1228;-69
2023/03/16 15:33:22;;;;;;;;;;;;;;;;;;2212560;67;1139;-69
2023/03/16 15:35:56;;;;;;;;;;;;;;;;;;2212966;67;1065;-69
2023/03/16 15:38:32;;;;;;;;;;;;;;;;;;2211191;67;2377;-68
2023/03/16 15:41:02;;;;;;;;;;;;;;;;;;2212521;66;1219;-69
2023/03/16 15:43:33;;;;;;;;;;;;;;;;;;2212853;67;1055;-69
2023/03/16 15:46:04;;;;;;;;;;;;;;;;;;2212991;59;1995;-68
2023/03/16 15:48:34;;;;;;;;;;;;;;;;;;2212640;66;1251;-69
2023/03/16 15:51:07;;;;;;;;;;;;;;;;;;2212576;59;1077;-69
2023/03/16 15:53:40;;;;;;;;;;;;;;;;;;2211494;67;1136;-69
2023/03/16 15:56:18;;;;;;;;;;;;;;;;;;2213216;67;1049;-70
2023/03/16 15:58:49;;;;;;;;;;;;;;;;;;2212275;67;1242;-68
2023/03/16 16:01:27;;;;;;;;;;;;;;;;;;2212348;67;986;-67
2023/03/16 16:03:57;;;;;;;;;;;;;;;;;;2211964;67;1030;-69
2023/03/16 16:06:29;;;;;;;;;;;;;;;;;;2213100;66;1996;-69
2023/03/16 16:08:59;;;;;;;;;;;;;;;;;;2212717;67;1294;-69
2023/03/16 16:11:30;;;;;;;;;;;;;;;;;;2212683;59;1090;-69
2023/03/16 16:14:01;;;;;;;;;;;;;;;;;;2211326;67;1076;-69
2023/03/16 16:16:33;;;;;;;;;;;;;;;;;;2212098;66;1215;-68
2023/03/16 16:19:09;;;;;;;;;;;;;;;;;;2212476;66;1292;-69
2023/03/16 16:21:41;;;;;;;;;;;;;;;;;;2212295;66;1061;-68
2023/03/16 16:24:11;;;;;;;;;;;;;;;;;;2212525;66;1210;-69
2023/03/16 16:26:49;;;;;;;;;;;;;;;;;;2210651;59;1939;-69
2023/03/16 16:29:21;;;;;;;;;;;;;;;;;;2211462;67;1289;-69
2023/03/16 16:31:51;;;;;;;;;;;;;;;;;;2212330;67;1208;-68
2023/03/16 16:34:23;;;;;;;;;;;;;;;;;;2211680;67;1097;-69
2023/03/16 16:36:54;;;;;;;;;;;;;;;;;;2212236;67;1347;-68
2023/03/16 16:39:25;;;;;;;;;;;;;;;;;;2210891;59;1382;-69
2023/03/16 16:41:55;;;;;;;;;;;;;;;;;;2211738;67;1060;-69
2023/03/16 16:44:27;;;;;;;;;;;;;;;;;;2212273;59;1925;-69
2023/03/16 16:46:58;;;;;;;;;;;;;;;;;;2212067;59;1157;-69
2023/03/16 16:49:29;;;;;;;;;;;;;;;;;;2212874;59;1257;-68
2023/03/16 16:52:00;;;;;;;;;;;;;;;;;;2212114;67;1013;-69
2023/03/16 16:54:30;;;;;;;;;;;;;;;;;;2211924;66;1017;-69
2023/03/16 16:57:01;;;;;;;;;;;;;;;;;;2212402;59;1144;-69
2023/03/16 16:59:32;;;;;;;;;;;;;;;;;;2211743;67;1274;-69
2023/03/16 17:02:16;;;;;;;;;;;;;;;;;;2212631;67;1206;-69
2023/03/16 17:04:49;;;;;;;;;;;;;;;;;;2212514;66;2000;-69
2023/03/16 17:07:19;;;;;;;;;;;;;;;;;;2214822;66;1136;-69
2023/03/16 17:09:50;;;;;;;;;;;;;;;;;;2211589;67;1329;-69
2023/03/16 17:12:21;;;;;;;;;;;;;;;;;;2211890;67;1178;-69
2023/03/16 17:14:52;;;;;;;;;;;;;;;;;;2212133;67;976;-69
2023/03/16 17:17:22;;;;;;;;;;;;;;;;;;2212025;67;1067;-69
2023/03/16 17:19:52;;;;;;;;;;;;;;;;;;2212608;67;1298;-69
2023/03/16 17:22:24;;;;;;;;;;;;;;;;;;2212370;67;1072;-69
2023/03/16 17:24:54;;;;;;;;;;;;;;;;;;2212340;67;1944;-69
2023/03/16 17:27:30;;;;;;;;;;;;;;;;;;2212542;67;1140;-69
2023/03/16 17:30:01;;;;;;;;;;;;;;;;;;2212553;67;1362;-69
2023/03/16 17:32:32;;;;;;;;;;;;;;;;;;2212824;66;979;-69
2023/03/16 17:35:11;;;;;;;;;;;;;;;;;;2212528;67;1142;-68
2023/03/16 17:37:41;;;;;;;;;;;;;;;;;;2212370;67;1231;-68
2023/03/16 17:40:16;;;;;;;;;;;;;;;;;;2211751;67;1103;-68
2023/03/16 17:42:48;;;;;;;;;;;;;;;;;;2213259;66;1378;-69